KOGA/OGA METAR and TAF weather

Enter ICAO airport designator
Station Type Date Time Source
KOGA METAR 2019/08/25 18:15 UTC NOAA

KOGA 251815Z AUTO 18005KT 7SM BKN007 OVC012 20/19 A2989 RMK AO2 T02000192


Station Type Date Time Source
KOGA Decoded METAR 2019/08/25 18:15 UTC NOAA

Station name not available
Aug 25, 2019 - 02:15 PM EDT / 2019.08.25 1815 UTC
Wind: from the S (180 degrees) at 6 MPH (5 KT):0
Visibility: 7 mile(s):0
Sky conditions: overcast
Temperature: 68.0 F (20.0 C)
Dew Point: 66.6 F (19.2 C)
Relative Humidity: 95%
Pressure (altimeter): 29.89 in. Hg (1012 hPa)
ob: KOGA 251815Z AUTO 18005KT 7SM BKN007 OVC012 20/19 A2989 RMK AO2 T02000192
cycle: 18

Station Type Date Time Source
KOGA TAF UTC NOAA

Error!

Example: see airport list